sensor_id;sensor_type;location;lat;lon;timestamp;temperature;humidity
39899;DHT22;25571;47.876;10.642;2022-12-07T00:00:40;3.50;99.90
39899;DHT22;25571;47.876;10.642;2022-12-07T00:03:06;3.40;99.90
39899;DHT22;25571;47.876;10.642;2022-12-07T00:05:31;3.40;99.90
39899;DHT22;25571;47.876;10.642;2022-12-07T00:07:57;3.50;99.90
39899;DHT22;25571;47.876;10.642;2022-12-07T00:10:22;3.60;99.90
39899;DHT22;25571;47.876;10.642;2022-12-07T00:12:48;3.60;99.90
39899;DHT22;25571;47.876;10.642;2022-12-07T00:15:13;3.80;99.90
39899;DHT22;25571;47.876;10.642;2022-12-07T00:17:39;3.80;99.90
39899;DHT22;25571;47.876;10.642;2022-12-07T00:20:05;3.80;99.90
39899;DHT22;25571;47.876;10.642;2022-12-07T00:22:31;3.80;99.90
39899;DHT22;25571;47.876;10.642;2022-12-07T00:24:56;3.70;99.90
39899;DHT22;25571;47.876;10.642;2022-12-07T00:27:22;3.70;99.90
39899;DHT22;25571;47.876;10.642;2022-12-07T00:29:47;3.80;99.90
39899;DHT22;25571;47.876;10.642;2022-12-07T00:32:13;3.80;99.90
39899;DHT22;25571;47.876;10.642;2022-12-07T00:34:39;3.80;99.90
39899;DHT22;25571;47.876;10.642;2022-12-07T00:37:04;3.90;99.90
39899;DHT22;25571;47.876;10.642;2022-12-07T00:39:30;3.90;99.90
39899;DHT22;25571;47.876;10.642;2022-12-07T00:41:55;3.90;99.90
39899;DHT22;25571;47.876;10.642;2022-12-07T00:44:21;4.00;99.90
39899;DHT22;25571;47.876;10.642;2022-12-07T00:46:46;4.00;99.90
39899;DHT22;25571;47.876;10.642;2022-12-07T00:49:12;4.00;99.90
39899;DHT22;25571;47.876;10.642;2022-12-07T00:51:38;4.00;99.90
39899;DHT22;25571;47.876;10.642;2022-12-07T00:54:03;4.10;99.90
39899;DHT22;25571;47.876;10.642;2022-12-07T00:56:29;4.10;99.90
39899;DHT22;25571;47.876;10.642;2022-12-07T00:58:57;4.10;99.90
39899;DHT22;25571;47.876;10.642;2022-12-07T01:01:24;4.20;99.90
39899;DHT22;25571;47.876;10.642;2022-12-07T01:03:51;4.20;99.90
39899;DHT22;25571;47.876;10.642;2022-12-07T01:06:18;4.20;99.90
39899;DHT22;25571;47.876;10.642;2022-12-07T01:08:44;4.20;99.90
39899;DHT22;25571;47.876;10.642;2022-12-07T01:11:14;4.20;99.90
39899;DHT22;25571;47.876;10.642;2022-12-07T01:13:41;4.20;99.90
39899;DHT22;25571;47.876;10.642;2022-12-07T01:16:08;4.20;99.90
39899;DHT22;25571;47.876;10.642;2022-12-07T01:18:35;4.30;99.90
39899;DHT22;25571;47.876;10.642;2022-12-07T01:21:14;4.20;99.90
39899;DHT22;25571;47.876;10.642;2022-12-07T01:23:40;4.20;99.90
39899;DHT22;25571;47.876;10.642;2022-12-07T01:26:09;4.20;99.90
39899;DHT22;25571;47.876;10.642;2022-12-07T01:28:35;4.30;99.90
39899;DHT22;25571;47.876;10.642;2022-12-07T01:31:07;4.20;99.90
39899;DHT22;25571;47.876;10.642;2022-12-07T01:33:36;4.30;99.90
39899;DHT22;25571;47.876;10.642;2022-12-07T01:38:40;4.30;99.90
39899;DHT22;25571;47.876;10.642;2022-12-07T01:41:07;4.30;99.90
39899;DHT22;25571;47.876;10.642;2022-12-07T01:43:33;4.30;99.90
39899;DHT22;25571;47.876;10.642;2022-12-07T01:46:00;4.30;99.90
39899;DHT22;25571;47.876;10.642;2022-12-07T01:48:31;4.30;99.90
39899;DHT22;25571;47.876;10.642;2022-12-07T01:51:02;4.30;99.90
39899;DHT22;25571;47.876;10.642;2022-12-07T01:53:30;4.10;99.90
39899;DHT22;25571;47.876;10.642;2022-12-07T01:55:56;4.20;99.90
39899;DHT22;25571;47.876;10.642;2022-12-07T01:58:23;4.20;99.90
39899;DHT22;25571;47.876;10.642;2022-12-07T02:00:49;4.10;99.90
39899;DHT22;25571;47.876;10.642;2022-12-07T02:03:29;4.00;99.90
39899;DHT22;25571;47.876;10.642;2022-12-07T02:05:55;4.10;99.90
39899;DHT22;25571;47.876;10.642;2022-12-07T02:08:22;4.10;99.90
39899;DHT22;25571;47.876;10.642;2022-12-07T02:10:49;4.20;99.90
39899;DHT22;25571;47.876;10.642;2022-12-07T02:13:24;4.20;99.90
39899;DHT22;25571;47.876;10.642;2022-12-07T02:18:34;4.20;99.90
39899;DHT22;25571;47.876;10.642;2022-12-07T02:21:08;4.10;99.90
39899;DHT22;25571;47.876;10.642;2022-12-07T02:23:48;4.20;99.90
39899;DHT22;25571;47.876;10.642;2022-12-07T02:34:59;4.20;99.90
39899;DHT22;25571;47.876;10.642;2022-12-07T02:43:01;4.20;99.90
39899;DHT22;25571;47.876;10.642;2022-12-07T02:45:29;4.10;99.90
39899;DHT22;25571;47.876;10.642;2022-12-07T02:47:58;4.20;99.90
39899;DHT22;25571;47.876;10.642;2022-12-07T02:50:26;4.20;99.90
39899;DHT22;25571;47.876;10.642;2022-12-07T02:52:51;4.20;99.90
39899;DHT22;25571;47.876;10.642;2022-12-07T02:55:20;4.20;99.90
39899;DHT22;25571;47.876;10.642;2022-12-07T03:00:18;4.30;99.90
39899;DHT22;25571;47.876;10.642;2022-12-07T03:08:19;4.30;99.90
39899;DHT22;25571;47.876;10.642;2022-12-07T03:11:07;4.20;99.90
39899;DHT22;25571;47.876;10.642;2022-12-07T03:13:50;4.20;99.90
39899;DHT22;25571;47.876;10.642;2022-12-07T03:16:42;4.30;99.90
39899;DHT22;25571;47.876;10.642;2022-12-07T03:19:27;4.20;99.90
39899;DHT22;25571;47.876;10.642;2022-12-07T03:22:12;4.20;99.90
39899;DHT22;25571;47.876;10.642;2022-12-07T03:24:42;4.20;99.90
39899;DHT22;25571;47.876;10.642;2022-12-07T03:27:29;4.20;99.90
39899;DHT22;25571;47.876;10.642;2022-12-07T03:30:06;4.30;99.90
39899;DHT22;25571;47.876;10.642;2022-12-07T03:32:37;4.30;99.90
39899;DHT22;25571;47.876;10.642;2022-12-07T03:35:30;4.30;99.90
39899;DHT22;25571;47.876;10.642;2022-12-07T03:38:19;4.30;99.90
39899;DHT22;25571;47.876;10.642;2022-12-07T03:41:11;4.30;99.90
39899;DHT22;25571;47.876;10.642;2022-12-07T03:43:38;4.30;99.90
39899;DHT22;25571;47.876;10.642;2022-12-07T03:54:34;4.20;99.90
39899;DHT22;25571;47.876;10.642;2022-12-07T03:57:02;4.20;99.90
39899;DHT22;25571;47.876;10.642;2022-12-07T03:59:30;4.20;99.90
39899;DHT22;25571;47.876;10.642;2022-12-07T04:02:02;4.20;99.90
39899;DHT22;25571;47.876;10.642;2022-12-07T04:04:28;4.10;99.90
39899;DHT22;25571;47.876;10.642;2022-12-07T04:06:54;4.10;99.90
39899;DHT22;25571;47.876;10.642;2022-12-07T04:09:20;4.10;99.90
39899;DHT22;25571;47.876;10.642;2022-12-07T04:11:46;4.10;99.90
39899;DHT22;25571;47.876;10.642;2022-12-07T04:14:11;4.00;99.90
39899;DHT22;25571;47.876;10.642;2022-12-07T04:16:50;4.00;99.90
39899;DHT22;25571;47.876;10.642;2022-12-07T04:19:18;3.90;99.90
39899;DHT22;25571;47.876;10.642;2022-12-07T04:21:44;3.90;99.90
39899;DHT22;25571;47.876;10.642;2022-12-07T04:24:12;3.80;99.90
39899;DHT22;25571;47.876;10.642;2022-12-07T04:26:38;3.80;99.90
39899;DHT22;25571;47.876;10.642;2022-12-07T04:29:04;3.80;99.90
39899;DHT22;25571;47.876;10.642;2022-12-07T04:31:29;3.80;99.90
39899;DHT22;25571;47.876;10.642;2022-12-07T04:33:55;3.70;99.90
39899;DHT22;25571;47.876;10.642;2022-12-07T04:36:20;3.60;99.90
39899;DHT22;25571;47.876;10.642;2022-12-07T04:38:46;3.60;99.90
39899;DHT22;25571;47.876;10.642;2022-12-07T04:41:12;3.60;99.90
39899;DHT22;25571;47.876;10.642;2022-12-07T04:43:38;3.50;99.90
39899;DHT22;25571;47.876;10.642;2022-12-07T04:46:03;3.40;99.90
39899;DHT22;25571;47.876;10.642;2022-12-07T04:48:30;3.40;99.90
39899;DHT22;25571;47.876;10.642;2022-12-07T04:50:55;3.40;99.90
39899;DHT22;25571;47.876;10.642;2022-12-07T04:53:21;3.40;99.90
39899;DHT22;25571;47.876;10.642;2022-12-07T04:55:47;3.40;99.90
39899;DHT22;25571;47.876;10.642;2022-12-07T04:58:13;3.40;99.90
39899;DHT22;25571;47.876;10.642;2022-12-07T05:00:39;3.40;99.90
39899;DHT22;25571;47.876;10.642;2022-12-07T05:03:05;3.40;99.90
39899;DHT22;25571;47.876;10.642;2022-12-07T05:05:31;3.40;99.90
39899;DHT22;25571;47.876;10.642;2022-12-07T05:07:56;3.40;99.90
39899;DHT22;25571;47.876;10.642;2022-12-07T05:10:22;3.50;99.90
39899;DHT22;25571;47.876;10.642;2022-12-07T05:12:47;3.40;99.90
39899;DHT22;25571;47.876;10.642;2022-12-07T05:15:14;3.40;99.90
39899;DHT22;25571;47.876;10.642;2022-12-07T05:17:40;3.30;99.90
39899;DHT22;25571;47.876;10.642;2022-12-07T05:20:06;3.40;99.90
39899;DHT22;25571;47.876;10.642;2022-12-07T05:22:32;3.30;99.90
39899;DHT22;25571;47.876;10.642;2022-12-07T05:24:58;3.30;99.90
39899;DHT22;25571;47.876;10.642;2022-12-07T05:27:23;3.30;99.90
39899;DHT22;25571;47.876;10.642;2022-12-07T05:29:52;3.30;99.90
39899;DHT22;25571;47.876;10.642;2022-12-07T05:32:17;3.40;99.90
39899;DHT22;25571;47.876;10.642;2022-12-07T05:34:43;3.40;99.90
39899;DHT22;25571;47.876;10.642;2022-12-07T05:37:09;3.30;99.90
39899;DHT22;25571;47.876;10.642;2022-12-07T05:39:35;3.40;99.90
39899;DHT22;25571;47.876;10.642;2022-12-07T05:42:00;3.40;99.90
39899;DHT22;25571;47.876;10.642;2022-12-07T05:44:39;3.30;99.90
39899;DHT22;25571;47.876;10.642;2022-12-07T05:47:04;3.30;99.90
39899;DHT22;25571;47.876;10.642;2022-12-07T05:49:30;3.40;99.90
39899;DHT22;25571;47.876;10.642;2022-12-07T05:51:56;3.30;99.90
39899;DHT22;25571;47.876;10.642;2022-12-07T05:54:23;3.30;99.90
39899;DHT22;25571;47.876;10.642;2022-12-07T05:56:48;3.40;99.90
39899;DHT22;25571;47.876;10.642;2022-12-07T05:59:14;3.40;99.90
39899;DHT22;25571;47.876;10.642;2022-12-07T06:04:18;3.40;99.90
39899;DHT22;25571;47.876;10.642;2022-12-07T06:06:44;3.40;99.90
39899;DHT22;25571;47.876;10.642;2022-12-07T06:09:10;3.50;99.90
39899;DHT22;25571;47.876;10.642;2022-12-07T06:11:36;3.50;99.90
39899;DHT22;25571;47.876;10.642;2022-12-07T06:14:20;3.50;99.90
39899;DHT22;25571;47.876;10.642;2022-12-07T06:16:45;3.40;99.90
39899;DHT22;25571;47.876;10.642;2022-12-07T06:19:11;3.40;99.90
39899;DHT22;25571;47.876;10.642;2022-12-07T06:21:37;3.40;99.90
39899;DHT22;25571;47.876;10.642;2022-12-07T06:24:03;3.50;99.90
39899;DHT22;25571;47.876;10.642;2022-12-07T06:26:28;3.50;99.90
39899;DHT22;25571;47.876;10.642;2022-12-07T06:28:54;3.60;99.90
39899;DHT22;25571;47.876;10.642;2022-12-07T06:31:20;3.60;99.90
39899;DHT22;25571;47.876;10.642;2022-12-07T06:33:45;3.50;99.90
39899;DHT22;25571;47.876;10.642;2022-12-07T06:36:11;3.60;99.90
39899;DHT22;25571;47.876;10.642;2022-12-07T06:38:37;3.60;99.90
39899;DHT22;25571;47.876;10.642;2022-12-07T06:41:02;3.50;99.90
39899;DHT22;25571;47.876;10.642;2022-12-07T06:43:28;3.60;99.90
39899;DHT22;25571;47.876;10.642;2022-12-07T06:45:54;3.60;99.90
39899;DHT22;25571;47.876;10.642;2022-12-07T06:48:20;3.50;99.90
39899;DHT22;25571;47.876;10.642;2022-12-07T06:50:46;3.50;99.90
39899;DHT22;25571;47.876;10.642;2022-12-07T06:53:11;3.50;99.90
39899;DHT22;25571;47.876;10.642;2022-12-07T06:55:37;3.60;99.90
39899;DHT22;25571;47.876;10.642;2022-12-07T06:58:03;3.60;99.90
39899;DHT22;25571;47.876;10.642;2022-12-07T07:00:28;3.60;99.90
39899;DHT22;25571;47.876;10.642;2022-12-07T07:02:54;3.50;99.90
39899;DHT22;25571;47.876;10.642;2022-12-07T07:05:20;3.60;99.90
39899;DHT22;25571;47.876;10.642;2022-12-07T07:07:48;3.60;99.90
39899;DHT22;25571;47.876;10.642;2022-12-07T07:10:14;3.60;99.90
39899;DHT22;25571;47.876;10.642;2022-12-07T07:12:39;3.60;99.90
39899;DHT22;25571;47.876;10.642;2022-12-07T07:15:05;3.50;99.90
39899;DHT22;25571;47.876;10.642;2022-12-07T07:17:31;3.50;99.90
39899;DHT22;25571;47.876;10.642;2022-12-07T07:19:56;3.50;99.90
39899;DHT22;25571;47.876;10.642;2022-12-07T07:22:22;3.50;99.90
39899;DHT22;25571;47.876;10.642;2022-12-07T07:24:48;3.50;99.90
39899;DHT22;25571;47.876;10.642;2022-12-07T07:27:13;3.60;99.90
39899;DHT22;25571;47.876;10.642;2022-12-07T07:29:39;3.70;99.90
39899;DHT22;25571;47.876;10.642;2022-12-07T07:32:04;3.70;99.90
39899;DHT22;25571;47.876;10.642;2022-12-07T07:34:30;3.70;99.90
39899;DHT22;25571;47.876;10.642;2022-12-07T07:36:55;3.60;99.90
39899;DHT22;25571;47.876;10.642;2022-12-07T07:39:21;3.60;99.90
39899;DHT22;25571;47.876;10.642;2022-12-07T07:41:47;3.50;99.90
39899;DHT22;25571;47.876;10.642;2022-12-07T07:44:12;3.50;99.90
39899;DHT22;25571;47.876;10.642;2022-12-07T07:46:38;3.50;99.90
39899;DHT22;25571;47.876;10.642;2022-12-07T07:49:04;3.50;99.90
39899;DHT22;25571;47.876;10.642;2022-12-07T07:51:29;3.60;99.90
39899;DHT22;25571;47.876;10.642;2022-12-07T07:53:55;3.60;99.90
39899;DHT22;25571;47.876;10.642;2022-12-07T07:56:20;3.60;99.90
39899;DHT22;25571;47.876;10.642;2022-12-07T07:58:46;3.50;99.90
39899;DHT22;25571;47.876;10.642;2022-12-07T08:01:11;3.50;99.90
39899;DHT22;25571;47.876;10.642;2022-12-07T08:03:38;3.50;99.90
39899;DHT22;25571;47.876;10.642;2022-12-07T08:06:04;3.50;99.90
39899;DHT22;25571;47.876;10.642;2022-12-07T08:08:30;3.60;99.90
39899;DHT22;25571;47.876;10.642;2022-12-07T08:10:56;3.60;99.90
39899;DHT22;25571;47.876;10.642;2022-12-07T08:13:25;3.60;99.90
39899;DHT22;25571;47.876;10.642;2022-12-07T08:15:51;3.60;99.90
39899;DHT22;25571;47.876;10.642;2022-12-07T08:18:17;3.60;99.90
39899;DHT22;25571;47.876;10.642;2022-12-07T08:20:43;3.70;99.90
39899;DHT22;25571;47.876;10.642;2022-12-07T08:23:09;3.70;99.90
39899;DHT22;25571;47.876;10.642;2022-12-07T08:25:35;3.70;99.90
39899;DHT22;25571;47.876;10.642;2022-12-07T08:28:01;3.80;99.90
39899;DHT22;25571;47.876;10.642;2022-12-07T08:30:28;3.80;99.90
39899;DHT22;25571;47.876;10.642;2022-12-07T08:32:55;3.80;99.90
39899;DHT22;25571;47.876;10.642;2022-12-07T08:35:21;3.80;99.90
39899;DHT22;25571;47.876;10.642;2022-12-07T08:37:46;3.70;99.90
39899;DHT22;25571;47.876;10.642;2022-12-07T08:40:13;3.70;99.90
39899;DHT22;25571;47.876;10.642;2022-12-07T08:42:42;3.80;99.90
39899;DHT22;25571;47.876;10.642;2022-12-07T08:45:10;3.70;99.90
39899;DHT22;25571;47.876;10.642;2022-12-07T08:47:38;3.80;99.90
39899;DHT22;25571;47.876;10.642;2022-12-07T08:50:07;3.70;99.90
39899;DHT22;25571;47.876;10.642;2022-12-07T08:52:34;3.70;99.90
39899;DHT22;25571;47.876;10.642;2022-12-07T08:55:00;3.80;99.90
39899;DHT22;25571;47.876;10.642;2022-12-07T08:57:27;3.80;99.90
39899;DHT22;25571;47.876;10.642;2022-12-07T08:59:53;3.80;99.90
39899;DHT22;25571;47.876;10.642;2022-12-07T09:02:19;3.90;99.90
39899;DHT22;25571;47.876;10.642;2022-12-07T09:04:45;3.90;99.90
39899;DHT22;25571;47.876;10.642;2022-12-07T09:07:11;3.90;99.90
39899;DHT22;25571;47.876;10.642;2022-12-07T09:09:36;4.00;99.90
39899;DHT22;25571;47.876;10.642;2022-12-07T09:12:02;3.90;99.90
39899;DHT22;25571;47.876;10.642;2022-12-07T09:14:28;3.90;99.90
39899;DHT22;25571;47.876;10.642;2022-12-07T09:16:54;3.90;99.90
39899;DHT22;25571;47.876;10.642;2022-12-07T09:19:19;3.80;99.90
39899;DHT22;25571;47.876;10.642;2022-12-07T09:21:45;3.90;99.90
39899;DHT22;25571;47.876;10.642;2022-12-07T09:24:12;3.90;99.90
39899;DHT22;25571;47.876;10.642;2022-12-07T09:26:38;3.90;99.90
39899;DHT22;25571;47.876;10.642;2022-12-07T09:29:05;3.90;99.90
39899;DHT22;25571;47.876;10.642;2022-12-07T09:31:31;4.00;99.90
39899;DHT22;25571;47.876;10.642;2022-12-07T09:33:58;4.00;99.90
39899;DHT22;25571;47.876;10.642;2022-12-07T09:36:25;4.20;99.90
39899;DHT22;25571;47.876;10.642;2022-12-07T09:38:51;4.10;99.90
39899;DHT22;25571;47.876;10.642;2022-12-07T09:41:16;4.10;99.90
39899;DHT22;25571;47.876;10.642;2022-12-07T09:43:42;4.10;99.90
39899;DHT22;25571;47.876;10.642;2022-12-07T09:46:13;4.10;99.90
39899;DHT22;25571;47.876;10.642;2022-12-07T09:48:41;4.10;99.90
39899;DHT22;25571;47.876;10.642;2022-12-07T09:51:22;4.10;99.90
39899;DHT22;25571;47.876;10.642;2022-12-07T09:53:49;4.20;99.90
39899;DHT22;25571;47.876;10.642;2022-12-07T09:56:17;4.20;99.90
39899;DHT22;25571;47.876;10.642;2022-12-07T09:58:44;4.20;99.90
39899;DHT22;25571;47.876;10.642;2022-12-07T10:01:18;4.20;99.90
39899;DHT22;25571;47.876;10.642;2022-12-07T10:03:52;4.30;99.90
39899;DHT22;25571;47.876;10.642;2022-12-07T10:06:18;4.40;99.90
39899;DHT22;25571;47.876;10.642;2022-12-07T10:08:44;4.40;99.90
39899;DHT22;25571;47.876;10.642;2022-12-07T10:11:10;4.50;99.90
39899;DHT22;25571;47.876;10.642;2022-12-07T10:13:46;4.40;99.90
39899;DHT22;25571;47.876;10.642;2022-12-07T10:16:46;4.50;99.90
39899;DHT22;25571;47.876;10.642;2022-12-07T10:24:26;4.40;99.90
39899;DHT22;25571;47.876;10.642;2022-12-07T10:26:53;4.50;99.90
39899;DHT22;25571;47.876;10.642;2022-12-07T10:29:32;4.40;99.90
39899;DHT22;25571;47.876;10.642;2022-12-07T10:32:04;4.30;99.90
39899;DHT22;25571;47.876;10.642;2022-12-07T10:34:37;4.40;99.90
39899;DHT22;25571;47.876;10.642;2022-12-07T10:39:54;4.20;99.90
39899;DHT22;25571;47.876;10.642;2022-12-07T10:42:25;4.00;99.90
39899;DHT22;25571;47.876;10.642;2022-12-07T10:45:14;3.90;99.90
39899;DHT22;25571;47.876;10.642;2022-12-07T10:53:35;4.10;99.90
39899;DHT22;25571;47.876;10.642;2022-12-07T11:02:32;4.40;99.90
39899;DHT22;25571;47.876;10.642;2022-12-07T11:08:29;4.70;99.90
39899;DHT22;25571;47.876;10.642;2022-12-07T11:11:30;4.80;99.90
39899;DHT22;25571;47.876;10.642;2022-12-07T11:22:14;4.80;99.90
39899;DHT22;25571;47.876;10.642;2022-12-07T11:27:48;5.10;99.90
39899;DHT22;25571;47.876;10.642;2022-12-07T11:30:34;5.00;99.90
39899;DHT22;25571;47.876;10.642;2022-12-07T11:38:52;5.10;99.90
39899;DHT22;25571;47.876;10.642;2022-12-07T11:41:31;5.00;99.90
39899;DHT22;25571;47.876;10.642;2022-12-07T11:44:44;5.20;99.90
39899;DHT22;25571;47.876;10.642;2022-12-07T11:46:48;5.20;99.90
39899;DHT22;25571;47.876;10.642;2022-12-07T11:51:59;5.20;99.90
39899;DHT22;25571;47.876;10.642;2022-12-07T11:54:31;5.20;99.90
39899;DHT22;25571;47.876;10.642;2022-12-07T11:57:03;5.20;99.90
39899;DHT22;25571;47.876;10.642;2022-12-07T11:59:38;5.10;99.90
39899;DHT22;25571;47.876;10.642;2022-12-07T12:02:16;5.30;99.90
39899;DHT22;25571;47.876;10.642;2022-12-07T12:07:20;5.00;99.90
39899;DHT22;25571;47.876;10.642;2022-12-07T12:12:33;5.20;99.90
39899;DHT22;25571;47.876;10.642;2022-12-07T12:21:12;4.80;99.90
39899;DHT22;25571;47.876;10.642;2022-12-07T12:23:50;4.90;99.90
39899;DHT22;25571;47.876;10.642;2022-12-07T12:26:21;5.10;99.90
39899;DHT22;25571;47.876;10.642;2022-12-07T12:28:59;5.20;99.90
39899;DHT22;25571;47.876;10.642;2022-12-07T12:34:29;5.10;99.90
39899;DHT22;25571;47.876;10.642;2022-12-07T12:36:50;5.00;99.90
39899;DHT22;25571;47.876;10.642;2022-12-07T12:39:17;5.10;99.90
39899;DHT22;25571;47.876;10.642;2022-12-07T12:46:52;5.00;99.90
39899;DHT22;25571;47.876;10.642;2022-12-07T12:57:29;4.50;99.90
39899;DHT22;25571;47.876;10.642;2022-12-07T12:59:56;4.40;99.90
39899;DHT22;25571;47.876;10.642;2022-12-07T13:15:53;4.20;99.90
39899;DHT22;25571;47.876;10.642;2022-12-07T13:26:23;4.40;99.90
39899;DHT22;25571;47.876;10.642;2022-12-07T13:31:26;4.50;99.90
39899;DHT22;25571;47.876;10.642;2022-12-07T13:33:54;4.60;99.90
39899;DHT22;25571;47.876;10.642;2022-12-07T13:38:53;4.70;99.90
39899;DHT22;25571;47.876;10.642;2022-12-07T13:41:19;4.70;99.90
39899;DHT22;25571;47.876;10.642;2022-12-07T13:47:14;4.90;99.90
39899;DHT22;25571;47.876;10.642;2022-12-07T13:49:22;4.90;99.90
39899;DHT22;25571;47.876;10.642;2022-12-07T13:51:49;4.90;99.90
39899;DHT22;25571;47.876;10.642;2022-12-07T13:54:15;4.90;99.90
39899;DHT22;25571;47.876;10.642;2022-12-07T13:56:41;5.00;99.90
39899;DHT22;25571;47.876;10.642;2022-12-07T13:59:22;4.90;99.90
39899;DHT22;25571;47.876;10.642;2022-12-07T14:01:50;4.80;99.90
39899;DHT22;25571;47.876;10.642;2022-12-07T14:04:34;4.90;99.90
39899;DHT22;25571;47.876;10.642;2022-12-07T14:07:01;4.80;99.90
39899;DHT22;25571;47.876;10.642;2022-12-07T14:09:42;4.90;99.90
39899;DHT22;25571;47.876;10.642;2022-12-07T14:12:18;4.80;99.90
39899;DHT22;25571;47.876;10.642;2022-12-07T14:14:47;4.90;99.90
39899;DHT22;25571;47.876;10.642;2022-12-07T14:17:22;4.90;99.90
39899;DHT22;25571;47.876;10.642;2022-12-07T14:19:49;4.80;99.90
39899;DHT22;25571;47.876;10.642;2022-12-07T14:22:25;4.90;99.90
39899;DHT22;25571;47.876;10.642;2022-12-07T14:25:09;5.00;99.90
39899;DHT22;25571;47.876;10.642;2022-12-07T14:27:37;5.10;99.90
39899;DHT22;25571;47.876;10.642;2022-12-07T14:30:04;5.10;99.90
39899;DHT22;25571;47.876;10.642;2022-12-07T14:32:30;5.20;99.90
39899;DHT22;25571;47.876;10.642;2022-12-07T14:35:14;5.10;99.90
39899;DHT22;25571;47.876;10.642;2022-12-07T14:37:42;5.00;99.90
39899;DHT22;25571;47.876;10.642;2022-12-07T14:40:16;5.00;99.90
39899;DHT22;25571;47.876;10.642;2022-12-07T14:42:43;5.00;99.90
39899;DHT22;25571;47.876;10.642;2022-12-07T14:45:18;5.10;99.90
39899;DHT22;25571;47.876;10.642;2022-12-07T14:47:45;5.10;99.90
39899;DHT22;25571;47.876;10.642;2022-12-07T14:50:18;5.00;99.90
39899;DHT22;25571;47.876;10.642;2022-12-07T14:52:49;5.00;99.90
39899;DHT22;25571;47.876;10.642;2022-12-07T14:55:34;5.10;99.90
39899;DHT22;25571;47.876;10.642;2022-12-07T14:58:00;5.10;99.90
39899;DHT22;25571;47.876;10.642;2022-12-07T15:00:27;5.00;99.90
39899;DHT22;25571;47.876;10.642;2022-12-07T15:02:54;5.00;99.90
39899;DHT22;25571;47.876;10.642;2022-12-07T15:05:20;5.10;99.90
39899;DHT22;25571;47.876;10.642;2022-12-07T15:07:46;5.00;99.90
39899;DHT22;25571;47.876;10.642;2022-12-07T15:10:23;5.00;99.90
39899;DHT22;25571;47.876;10.642;2022-12-07T15:12:50;5.10;99.90
39899;DHT22;25571;47.876;10.642;2022-12-07T15:15:16;5.00;99.90
39899;DHT22;25571;47.876;10.642;2022-12-07T15:17:42;5.10;99.90
39899;DHT22;25571;47.876;10.642;2022-12-07T15:20:11;5.10;99.90
39899;DHT22;25571;47.876;10.642;2022-12-07T15:22:37;5.10;99.90
39899;DHT22;25571;47.876;10.642;2022-12-07T15:25:03;5.00;99.90
39899;DHT22;25571;47.876;10.642;2022-12-07T15:27:31;5.10;99.90
39899;DHT22;25571;47.876;10.642;2022-12-07T15:29:56;5.00;99.90
39899;DHT22;25571;47.876;10.642;2022-12-07T15:32:22;5.00;99.90
39899;DHT22;25571;47.876;10.642;2022-12-07T15:34:48;5.20;99.90
39899;DHT22;25571;47.876;10.642;2022-12-07T15:37:15;5.10;99.90
39899;DHT22;25571;47.876;10.642;2022-12-07T15:39:41;5.10;99.90
39899;DHT22;25571;47.876;10.642;2022-12-07T15:42:06;5.00;99.90
39899;DHT22;25571;47.876;10.642;2022-12-07T15:44:32;4.90;99.90
39899;DHT22;25571;47.876;10.642;2022-12-07T15:47:16;5.00;99.90
39899;DHT22;25571;47.876;10.642;2022-12-07T15:49:42;5.10;99.90
39899;DHT22;25571;47.876;10.642;2022-12-07T15:52:08;5.10;99.90
39899;DHT22;25571;47.876;10.642;2022-12-07T15:54:33;5.00;99.90
39899;DHT22;25571;47.876;10.642;2022-12-07T15:56:59;5.10;99.90
39899;DHT22;25571;47.876;10.642;2022-12-07T15:59:26;5.10;99.90
39899;DHT22;25571;47.876;10.642;2022-12-07T16:01:52;4.80;99.90
39899;DHT22;25571;47.876;10.642;2022-12-07T16:04:17;4.90;99.90
39899;DHT22;25571;47.876;10.642;2022-12-07T16:06:44;5.00;99.90
39899;DHT22;25571;47.876;10.642;2022-12-07T16:09:10;4.90;99.90
39899;DHT22;25571;47.876;10.642;2022-12-07T16:11:35;4.90;99.90
39899;DHT22;25571;47.876;10.642;2022-12-07T16:14:01;4.80;99.90
39899;DHT22;25571;47.876;10.642;2022-12-07T16:16:27;4.90;99.90
39899;DHT22;25571;47.876;10.642;2022-12-07T16:18:53;4.80;99.90
39899;DHT22;25571;47.876;10.642;2022-12-07T16:21:19;4.80;99.90
39899;DHT22;25571;47.876;10.642;2022-12-07T16:23:45;4.80;99.90
39899;DHT22;25571;47.876;10.642;2022-12-07T16:26:14;4.80;99.90
39899;DHT22;25571;47.876;10.642;2022-12-07T16:28:39;4.80;99.90
39899;DHT22;25571;47.876;10.642;2022-12-07T16:31:11;4.70;99.90
39899;DHT22;25571;47.876;10.642;2022-12-07T16:33:39;4.80;99.90
39899;DHT22;25571;47.876;10.642;2022-12-07T16:36:06;4.80;99.90
39899;DHT22;25571;47.876;10.642;2022-12-07T16:38:32;4.90;99.90
39899;DHT22;25571;47.876;10.642;2022-12-07T16:40:58;4.80;99.90
39899;DHT22;25571;47.876;10.642;2022-12-07T16:43:24;4.60;99.90
39899;DHT22;25571;47.876;10.642;2022-12-07T16:45:50;4.60;99.90
39899;DHT22;25571;47.876;10.642;2022-12-07T16:48:16;4.60;99.90
39899;DHT22;25571;47.876;10.642;2022-12-07T16:50:42;4.60;99.90
39899;DHT22;25571;47.876;10.642;2022-12-07T16:53:09;4.60;99.90
39899;DHT22;25571;47.876;10.642;2022-12-07T16:55:40;4.60;99.90
39899;DHT22;25571;47.876;10.642;2022-12-07T16:58:06;4.60;99.90
39899;DHT22;25571;47.876;10.642;2022-12-07T17:00:32;4.60;99.90
39899;DHT22;25571;47.876;10.642;2022-12-07T17:02:58;4.60;99.90
39899;DHT22;25571;47.876;10.642;2022-12-07T17:05:23;4.60;99.90
39899;DHT22;25571;47.876;10.642;2022-12-07T17:07:50;4.50;99.90
39899;DHT22;25571;47.876;10.642;2022-12-07T17:10:16;4.50;99.90
39899;DHT22;25571;47.876;10.642;2022-12-07T17:12:41;4.50;99.90
39899;DHT22;25571;47.876;10.642;2022-12-07T17:15:08;4.60;99.90
39899;DHT22;25571;47.876;10.642;2022-12-07T17:17:57;4.50;99.90
39899;DHT22;25571;47.876;10.642;2022-12-07T17:20:25;4.40;99.90
39899;DHT22;25571;47.876;10.642;2022-12-07T17:22:51;4.40;99.90
39899;DHT22;25571;47.876;10.642;2022-12-07T17:25:17;4.40;99.90
39899;DHT22;25571;47.876;10.642;2022-12-07T17:27:43;4.40;99.90
39899;DHT22;25571;47.876;10.642;2022-12-07T17:30:10;4.50;99.90
39899;DHT22;25571;47.876;10.642;2022-12-07T17:32:35;4.50;99.90
39899;DHT22;25571;47.876;10.642;2022-12-07T17:35:02;4.50;99.90
39899;DHT22;25571;47.876;10.642;2022-12-07T17:37:27;4.30;99.90
39899;DHT22;25571;47.876;10.642;2022-12-07T17:39:53;4.40;99.90
39899;DHT22;25571;47.876;10.642;2022-12-07T17:42:23;4.40;99.90
39899;DHT22;25571;47.876;10.642;2022-12-07T17:45:01;4.40;99.90
39899;DHT22;25571;47.876;10.642;2022-12-07T17:47:27;4.40;99.90
39899;DHT22;25571;47.876;10.642;2022-12-07T17:49:53;4.40;99.90
39899;DHT22;25571;47.876;10.642;2022-12-07T17:52:18;4.30;99.90
39899;DHT22;25571;47.876;10.642;2022-12-07T17:55:02;4.30;99.90
39899;DHT22;25571;47.876;10.642;2022-12-07T17:57:28;4.30;99.90